createdAt,value
2023-03-03T00:01:11.717Z,-1.98
2023-03-03T00:06:14.844Z,-1.96
2023-03-03T00:11:17.668Z,-1.99
2023-03-03T00:16:31.742Z,-2.09
2023-03-03T00:21:41.171Z,-2.15
2023-03-03T00:26:47.269Z,-2.19
2023-03-03T00:31:49.247Z,-2.20
2023-03-03T00:36:54.993Z,-2.25
2023-03-03T00:42:18.386Z,-2.38
2023-03-03T00:47:28.198Z,-2.53
2023-03-03T00:52:38.399Z,-2.69
2023-03-03T00:57:40.073Z,-2.76
2023-03-03T01:02:42.102Z,-2.72
2023-03-03T01:07:43.864Z,-2.64
2023-03-03T01:12:45.852Z,-2.62
2023-03-03T01:17:47.633Z,-2.68
2023-03-03T01:22:49.558Z,-2.81
2023-03-03T01:27:51.210Z,-2.94
2023-03-03T01:32:53.164Z,-2.99
2023-03-03T01:37:54.848Z,-2.94
2023-03-03T01:42:59.947Z,-2.89
2023-03-03T01:48:04.634Z,-2.89
2023-03-03T01:53:13.520Z,-2.99
2023-03-03T01:58:34.142Z,-3.15
2023-03-03T02:03:35.905Z,-3.33
2023-03-03T02:08:45.577Z,-3.42
2023-03-03T02:13:47.493Z,-3.41
2023-03-03T02:18:49.407Z,-3.39
2023-03-03T02:24:18.131Z,-3.45
2023-03-03T02:29:21.148Z,-3.52
2023-03-03T02:34:23.307Z,-3.60
2023-03-03T02:39:26.906Z,-3.79
2023-03-03T02:44:31.170Z,-3.57
2023-03-03T02:49:35.911Z,-3.54
2023-03-03T02:54:38.572Z,-3.54
2023-03-03T02:59:40.329Z,-3.58
2023-03-03T03:04:45.294Z,-3.69
2023-03-03T03:09:50.577Z,-3.80
2023-03-03T03:14:52.486Z,-3.86
2023-03-03T03:19:54.586Z,-3.86
2023-03-03T03:24:56.969Z,-3.81
2023-03-03T03:29:58.803Z,-3.79
2023-03-03T03:35:02.541Z,-3.85
2023-03-03T03:40:05.672Z,-4.15
2023-03-03T03:45:08.162Z,-3.99
2023-03-03T03:50:11.092Z,-4.05
2023-03-03T03:55:13.208Z,-4.03
2023-03-03T04:00:15.653Z,-3.99
2023-03-03T04:05:20.504Z,-4.01
2023-03-03T04:10:22.568Z,-4.09
2023-03-03T04:15:24.836Z,-4.22
2023-03-03T04:20:26.812Z,-4.33
2023-03-03T04:25:29.453Z,-4.39
2023-03-03T04:30:31.351Z,-4.33
2023-03-03T04:35:33.643Z,-4.21
2023-03-03T04:40:35.508Z,-4.05
2023-03-03T04:45:37.829Z,-3.95
2023-03-03T04:50:39.979Z,-3.93
2023-03-03T04:55:42.115Z,-3.95
2023-03-03T05:00:44.239Z,-3.96
2023-03-03T05:05:47.459Z,-3.97
2023-03-03T05:10:53.747Z,-3.98
2023-03-03T05:15:56.608Z,-3.92
2023-03-03T05:20:58.600Z,-3.79
2023-03-03T05:26:00.310Z,-3.60
2023-03-03T05:31:02.068Z,-3.52
2023-03-03T05:36:04.017Z,-3.41
2023-03-03T05:41:05.645Z,-3.25
2023-03-03T05:46:08.225Z,-3.12
2023-03-03T05:51:09.949Z,-3.04
2023-03-03T05:56:11.642Z,-2.98
2023-03-03T06:01:13.337Z,-2.97
2023-03-03T06:06:17.003Z,-3.02
2023-03-03T06:11:19.411Z,-3.25
2023-03-03T06:16:21.706Z,-3.11
2023-03-03T06:21:23.499Z,-3.04
2023-03-03T06:26:25.291Z,-2.96
2023-03-03T06:31:32.180Z,-2.77
2023-03-03T06:36:33.997Z,-2.57
2023-03-03T06:41:43.890Z,-2.51
2023-03-03T06:46:45.567Z,-2.67
2023-03-03T06:51:47.417Z,-2.80
2023-03-03T06:56:50.298Z,-2.76
2023-03-03T07:01:52.540Z,-2.74
2023-03-03T07:06:55.907Z,-2.71
2023-03-03T07:12:12.627Z,-2.73
2023-03-03T07:17:21.223Z,-2.71
2023-03-03T07:22:27.764Z,-2.51
2023-03-03T07:27:31.544Z,-2.38
2023-03-03T07:32:44.217Z,-2.28
2023-03-03T07:37:46.132Z,-2.28
2023-03-03T07:42:48.172Z,-2.33
2023-03-03T07:48:09.293Z,-2.27
2023-03-03T07:53:30.020Z,-2.13
2023-03-03T07:58:39.186Z,-2.02
2023-03-03T08:03:42.522Z,-1.95
2023-03-03T08:08:45.652Z,-1.93
2023-03-03T08:13:47.560Z,-1.80
2023-03-03T08:18:51.536Z,-1.68
2023-03-03T08:23:54.048Z,-1.49
2023-03-03T08:28:55.867Z,-1.43
2023-03-03T08:33:57.641Z,-1.43
2023-03-03T08:38:59.345Z,-1.46
2023-03-03T08:44:01.190Z,-1.40
2023-03-03T08:49:03.289Z,-1.22
2023-03-03T08:54:05.278Z,-1.12
2023-03-03T08:59:07.005Z,-1.01
2023-03-03T09:04:09.120Z,-0.87
2023-03-03T09:09:11.105Z,-0.60
2023-03-03T09:14:18.713Z,-0.42
2023-03-03T09:19:32.631Z,-0.32
2023-03-03T09:24:36.512Z,-0.22
2023-03-03T09:29:38.301Z,-0.14
2023-03-03T09:34:42.302Z,-0.00
2023-03-03T09:39:46.268Z,0.04
2023-03-03T09:45:22.219Z,0.15
2023-03-03T09:50:45.591Z,0.39
2023-03-03T09:56:12.529Z,0.43
2023-03-03T10:01:32.651Z,0.05
2023-03-03T10:06:45.301Z,-0.08
2023-03-03T10:12:25.394Z,-0.14
2023-03-03T10:17:41.752Z,-0.06
2023-03-03T10:22:52.831Z,0.11
2023-03-03T10:28:13.326Z,0.26
2023-03-03T10:33:18.120Z,0.22
2023-03-03T10:38:55.657Z,0.17
2023-03-03T10:44:29.473Z,0.21
2023-03-03T10:49:59.973Z,0.09
2023-03-03T10:55:21.896Z,-0.02
2023-03-03T11:00:36.971Z,-0.05
2023-03-03T11:05:58.225Z,-0.09
2023-03-03T11:11:12.239Z,0.07
2023-03-03T11:16:38.318Z,0.19
2023-03-03T11:22:07.663Z,0.32
2023-03-03T11:27:37.916Z,0.37
2023-03-03T11:33:04.711Z,0.35
2023-03-03T11:38:30.809Z,0.34
2023-03-03T11:43:45.443Z,0.41
2023-03-03T11:49:15.562Z,0.42
2023-03-03T11:54:34.326Z,0.43
2023-03-03T11:59:51.852Z,0.52
2023-03-03T12:05:05.302Z,0.64
2023-03-03T12:10:19.203Z,0.59
2023-03-03T12:15:37.121Z,0.66
2023-03-03T12:21:00.518Z,0.84
2023-03-03T12:26:15.690Z,0.91
2023-03-03T12:31:20.808Z,1.11
2023-03-03T12:36:40.670Z,1.28
2023-03-03T12:41:59.001Z,1.30
2023-03-03T12:47:10.397Z,1.27
2023-03-03T12:52:57.637Z,1.21
2023-03-03T12:58:24.286Z,1.23
2023-03-03T13:03:56.184Z,1.16
2023-03-03T13:09:03.831Z,1.10
2023-03-03T13:14:42.420Z,1.22
2023-03-03T13:20:00.935Z,1.38
2023-03-03T13:25:30.208Z,1.51
2023-03-03T13:30:35.844Z,1.61
2023-03-03T13:36:14.031Z,1.61
2023-03-03T13:41:43.684Z,1.61
2023-03-03T13:47:06.807Z,1.54
2023-03-03T13:52:16.119Z,1.58
2023-03-03T13:57:36.493Z,1.61
2023-03-03T14:03:18.178Z,1.65
2023-03-03T14:08:44.005Z,1.61
2023-03-03T14:14:10.561Z,1.36
2023-03-03T14:19:18.285Z,1.56
2023-03-03T14:24:23.186Z,1.39
2023-03-03T14:29:27.658Z,1.21
2023-03-03T14:34:57.580Z,1.20
2023-03-03T14:40:16.168Z,1.22
2023-03-03T14:45:35.816Z,1.35
2023-03-03T14:50:40.364Z,1.40
2023-03-03T14:55:45.367Z,1.46
2023-03-03T15:00:47.387Z,1.33
2023-03-03T15:05:51.415Z,1.19
2023-03-03T15:10:53.172Z,1.10
2023-03-03T15:16:16.762Z,1.02
2023-03-03T15:21:27.204Z,0.89
2023-03-03T15:26:50.286Z,0.82
2023-03-03T15:31:58.038Z,0.82
2023-03-03T15:37:14.514Z,0.62
2023-03-03T15:42:27.148Z,0.46
2023-03-03T15:47:53.665Z,0.42
2023-03-03T15:53:11.664Z,0.50
2023-03-03T15:58:25.178Z,0.46
2023-03-03T16:03:31.805Z,0.32
2023-03-03T16:08:51.614Z,0.41
2023-03-03T16:14:24.142Z,0.52
2023-03-03T16:19:39.747Z,0.55
2023-03-03T16:25:06.228Z,0.54
2023-03-03T16:30:26.386Z,0.41
2023-03-03T16:35:42.980Z,0.28
2023-03-03T16:41:00.215Z,0.14
2023-03-03T16:46:21.379Z,-0.00
2023-03-03T16:51:56.918Z,0.09
2023-03-03T16:57:14.416Z,0.11
2023-03-03T17:02:41.134Z,0.06
2023-03-03T17:08:14.891Z,0.03
2023-03-03T17:13:48.395Z,-0.03
2023-03-03T17:19:23.998Z,-0.00
2023-03-03T17:25:27.260Z,-0.03
2023-03-03T17:30:50.236Z,-0.08
2023-03-03T17:36:10.594Z,-0.07
2023-03-03T17:41:15.093Z,-0.07
2023-03-03T17:46:51.586Z,-0.04
2023-03-03T17:52:21.358Z,-0.14
2023-03-03T17:57:46.366Z,-0.21
2023-03-03T18:03:22.839Z,-0.18
2023-03-03T18:08:29.420Z,-0.11
2023-03-03T18:13:48.130Z,-0.08
2023-03-03T18:19:08.413Z,-0.05
2023-03-03T18:24:25.324Z,0.01
2023-03-03T18:29:28.572Z,0.03
2023-03-03T18:34:40.849Z,0.03
2023-03-03T18:39:48.593Z,0.06
2023-03-03T18:44:50.334Z,0.09
2023-03-03T18:50:31.923Z,0.07
2023-03-03T18:55:42.739Z,0.10
2023-03-03T19:00:52.385Z,0.12
2023-03-03T19:05:57.657Z,0.13
2023-03-03T19:11:01.525Z,0.13
2023-03-03T19:16:08.142Z,0.11
2023-03-03T19:21:12.852Z,0.14
2023-03-03T19:26:20.226Z,0.09
2023-03-03T19:31:39.373Z,0.06
2023-03-03T19:37:13.675Z,0.06
2023-03-03T19:42:21.568Z,0.05
2023-03-03T19:47:56.236Z,-0.05
2023-03-03T19:53:13.938Z,-0.09
2023-03-03T19:58:29.806Z,-0.13
2023-03-03T20:03:58.414Z,-0.17
2023-03-03T20:09:31.526Z,-0.21
2023-03-03T20:14:44.431Z,-0.26
2023-03-03T20:19:56.476Z,-0.25
2023-03-03T20:25:23.862Z,-0.17
2023-03-03T20:31:09.988Z,-0.15
2023-03-03T20:36:26.605Z,-0.08
2023-03-03T20:41:40.459Z,-0.11
2023-03-03T20:47:10.882Z,-0.15
2023-03-03T20:52:45.774Z,-0.16
2023-03-03T20:58:15.839Z,-0.14
2023-03-03T21:03:29.858Z,-0.13
2023-03-03T21:08:56.947Z,-0.20
2023-03-03T21:14:01.280Z,-0.19
2023-03-03T21:19:10.034Z,-0.14
2023-03-03T21:24:15.261Z,-0.10
2023-03-03T21:29:24.024Z,-0.12
2023-03-03T21:34:31.889Z,-0.14
2023-03-03T21:39:41.964Z,-0.11
2023-03-03T21:44:50.937Z,-0.06
2023-03-03T21:49:53.403Z,0.00
2023-03-03T21:54:55.218Z,0.03
2023-03-03T21:59:57.138Z,0.04
2023-03-03T22:04:59.536Z,0.03
2023-03-03T22:10:03.674Z,0.01
2023-03-03T22:15:08.534Z,0.04
2023-03-03T22:20:12.022Z,0.10
2023-03-03T22:25:13.750Z,0.06
2023-03-03T22:30:16.193Z,0.03
2023-03-03T22:35:18.972Z,0.04
2023-03-03T22:40:20.733Z,0.06
2023-03-03T22:45:52.748Z,0.06
2023-03-03T22:51:24.214Z,0.01
2023-03-03T22:56:29.286Z,-0.07
2023-03-03T23:01:31.210Z,-0.05
2023-03-03T23:06:32.945Z,-0.01
2023-03-03T23:11:34.709Z,0.02
2023-03-03T23:16:36.457Z,-0.02
2023-03-03T23:21:38.195Z,-0.02
2023-03-03T23:26:39.867Z,0.03
2023-03-03T23:31:41.751Z,0.08
2023-03-03T23:36:43.465Z,0.11
2023-03-03T23:41:45.323Z,0.14
2023-03-03T23:46:47.105Z,0.14
2023-03-03T23:51:48.912Z,0.11
2023-03-03T23:56:50.873Z,0.12
